sensor_id;sensor_type;location;lat;lon;timestamp;P1;durP1;ratioP1;P2;durP2;ratioP2
20114;SDS011;10218;42.874;25.320;2024-03-22T00:02:02;9.73;;;6.60;;
20114;SDS011;10218;42.874;25.320;2024-03-22T00:04:28;8.93;;;6.47;;
20114;SDS011;10218;42.874;25.320;2024-03-22T00:06:54;9.43;;;6.13;;
20114;SDS011;10218;42.874;25.320;2024-03-22T00:09:20;8.13;;;5.43;;
20114;SDS011;10218;42.874;25.320;2024-03-22T00:11:47;8.97;;;5.97;;
20114;SDS011;10218;42.874;25.320;2024-03-22T00:14:13;9.63;;;6.00;;
20114;SDS011;10218;42.874;25.320;2024-03-22T00:16:39;8.10;;;5.70;;
20114;SDS011;10218;42.874;25.320;2024-03-22T00:19:05;11.03;;;6.17;;
20114;SDS011;10218;42.874;25.320;2024-03-22T00:21:31;6.70;;;5.20;;
20114;SDS011;10218;42.874;25.320;2024-03-22T00:23:57;8.67;;;5.37;;
20114;SDS011;10218;42.874;25.320;2024-03-22T00:26:24;7.77;;;5.13;;
20114;SDS011;10218;42.874;25.320;2024-03-22T00:28:50;7.67;;;4.60;;
20114;SDS011;10218;42.874;25.320;2024-03-22T00:31:16;7.03;;;4.80;;
20114;SDS011;10218;42.874;25.320;2024-03-22T00:33:42;6.10;;;4.40;;
20114;SDS011;10218;42.874;25.320;2024-03-22T00:36:08;7.93;;;4.97;;
20114;SDS011;10218;42.874;25.320;2024-03-22T00:38:35;6.17;;;4.70;;
20114;SDS011;10218;42.874;25.320;2024-03-22T00:41:01;8.70;;;4.20;;
20114;SDS011;10218;42.874;25.320;2024-03-22T00:43:27;6.47;;;4.67;;
20114;SDS011;10218;42.874;25.320;2024-03-22T00:45:53;6.17;;;4.70;;
20114;SDS011;10218;42.874;25.320;2024-03-22T00:48:20;7.03;;;4.13;;
20114;SDS011;10218;42.874;25.320;2024-03-22T00:50:46;7.00;;;4.20;;
20114;SDS011;10218;42.874;25.320;2024-03-22T00:53:12;5.90;;;4.00;;
20114;SDS011;10218;42.874;25.320;2024-03-22T00:55:38;6.90;;;4.63;;
20114;SDS011;10218;42.874;25.320;2024-03-22T00:58:04;7.60;;;4.80;;
20114;SDS011;10218;42.874;25.320;2024-03-22T01:00:30;6.17;;;4.30;;
20114;SDS011;10218;42.874;25.320;2024-03-22T01:02:56;7.43;;;4.63;;
20114;SDS011;10218;42.874;25.320;2024-03-22T01:05:22;6.50;;;4.60;;
20114;SDS011;10218;42.874;25.320;2024-03-22T01:07:48;6.30;;;4.60;;
20114;SDS011;10218;42.874;25.320;2024-03-22T01:10:15;5.87;;;4.40;;
20114;SDS011;10218;42.874;25.320;2024-03-22T01:12:41;6.37;;;4.47;;
20114;SDS011;10218;42.874;25.320;2024-03-22T01:15:07;7.10;;;4.77;;
20114;SDS011;10218;42.874;25.320;2024-03-22T01:17:34;7.07;;;4.80;;
20114;SDS011;10218;42.874;25.320;2024-03-22T01:20:01;7.33;;;4.77;;
20114;SDS011;10218;42.874;25.320;2024-03-22T01:22:27;7.60;;;5.00;;
20114;SDS011;10218;42.874;25.320;2024-03-22T01:24:53;7.33;;;4.80;;
20114;SDS011;10218;42.874;25.320;2024-03-22T01:27:19;6.73;;;5.03;;
20114;SDS011;10218;42.874;25.320;2024-03-22T01:29:48;7.33;;;5.20;;
20114;SDS011;10218;42.874;25.320;2024-03-22T01:32:15;7.07;;;4.80;;
20114;SDS011;10218;42.874;25.320;2024-03-22T01:34:41;6.27;;;4.47;;
20114;SDS011;10218;42.874;25.320;2024-03-22T01:37:07;8.03;;;4.80;;
20114;SDS011;10218;42.874;25.320;2024-03-22T01:39:33;7.33;;;4.77;;
20114;SDS011;10218;42.874;25.320;2024-03-22T01:41:59;7.97;;;4.77;;
20114;SDS011;10218;42.874;25.320;2024-03-22T01:44:28;7.77;;;5.37;;
20114;SDS011;10218;42.874;25.320;2024-03-22T01:46:57;7.17;;;5.30;;
20114;SDS011;10218;42.874;25.320;2024-03-22T01:49:23;7.07;;;4.90;;
20114;SDS011;10218;42.874;25.320;2024-03-22T01:51:50;6.07;;;4.27;;
20114;SDS011;10218;42.874;25.320;2024-03-22T01:54:17;6.60;;;4.50;;
20114;SDS011;10218;42.874;25.320;2024-03-22T01:56:44;7.77;;;4.67;;
20114;SDS011;10218;42.874;25.320;2024-03-22T01:59:12;7.73;;;5.30;;
20114;SDS011;10218;42.874;25.320;2024-03-22T02:01:38;6.93;;;4.87;;
20114;SDS011;10218;42.874;25.320;2024-03-22T02:04:05;15.77;;;8.23;;
20114;SDS011;10218;42.874;25.320;2024-03-22T02:06:32;14.47;;;8.43;;
20114;SDS011;10218;42.874;25.320;2024-03-22T02:08:58;10.70;;;6.20;;
20114;SDS011;10218;42.874;25.320;2024-03-22T02:11:27;8.93;;;5.77;;
20114;SDS011;10218;42.874;25.320;2024-03-22T02:13:54;14.93;;;6.63;;
20114;SDS011;10218;42.874;25.320;2024-03-22T02:16:20;11.23;;;6.50;;
20114;SDS011;10218;42.874;25.320;2024-03-22T02:18:46;9.33;;;5.17;;
20114;SDS011;10218;42.874;25.320;2024-03-22T02:21:12;10.77;;;6.20;;
20114;SDS011;10218;42.874;25.320;2024-03-22T02:23:39;10.07;;;6.00;;
20114;SDS011;10218;42.874;25.320;2024-03-22T02:26:06;9.27;;;6.03;;
20114;SDS011;10218;42.874;25.320;2024-03-22T02:28:33;10.80;;;6.77;;
20114;SDS011;10218;42.874;25.320;2024-03-22T02:31:01;9.77;;;6.23;;
20114;SDS011;10218;42.874;25.320;2024-03-22T02:33:28;11.17;;;6.60;;
20114;SDS011;10218;42.874;25.320;2024-03-22T02:35:55;10.97;;;6.77;;
20114;SDS011;10218;42.874;25.320;2024-03-22T02:38:21;10.07;;;6.33;;
20114;SDS011;10218;42.874;25.320;2024-03-22T02:40:48;10.10;;;6.10;;
20114;SDS011;10218;42.874;25.320;2024-03-22T02:43:15;9.03;;;6.30;;
20114;SDS011;10218;42.874;25.320;2024-03-22T02:45:43;10.40;;;6.53;;
20114;SDS011;10218;42.874;25.320;2024-03-22T02:48:09;9.50;;;6.43;;
20114;SDS011;10218;42.874;25.320;2024-03-22T02:50:36;10.20;;;6.57;;
20114;SDS011;10218;42.874;25.320;2024-03-22T02:53:03;10.33;;;6.37;;
20114;SDS011;10218;42.874;25.320;2024-03-22T02:55:30;12.90;;;6.43;;
20114;SDS011;10218;42.874;25.320;2024-03-22T02:58:01;13.40;;;8.07;;
20114;SDS011;10218;42.874;25.320;2024-03-22T03:00:28;23.70;;;11.43;;
20114;SDS011;10218;42.874;25.320;2024-03-22T03:02:54;21.07;;;10.20;;
20114;SDS011;10218;42.874;25.320;2024-03-22T03:05:20;20.10;;;10.10;;
20114;SDS011;10218;42.874;25.320;2024-03-22T03:07:48;18.60;;;9.83;;
20114;SDS011;10218;42.874;25.320;2024-03-22T03:10:14;20.33;;;10.97;;
20114;SDS011;10218;42.874;25.320;2024-03-22T03:12:40;17.23;;;8.33;;
20114;SDS011;10218;42.874;25.320;2024-03-22T03:15:06;15.13;;;9.13;;
20114;SDS011;10218;42.874;25.320;2024-03-22T03:17:33;15.33;;;9.03;;
20114;SDS011;10218;42.874;25.320;2024-03-22T03:19:59;13.20;;;8.37;;
20114;SDS011;10218;42.874;25.320;2024-03-22T03:22:25;14.00;;;7.73;;
20114;SDS011;10218;42.874;25.320;2024-03-22T03:24:51;15.60;;;7.97;;
20114;SDS011;10218;42.874;25.320;2024-03-22T03:27:17;14.37;;;8.53;;
20114;SDS011;10218;42.874;25.320;2024-03-22T03:29:43;13.70;;;8.43;;
20114;SDS011;10218;42.874;25.320;2024-03-22T03:32:09;14.97;;;8.57;;
20114;SDS011;10218;42.874;25.320;2024-03-22T03:34:35;12.03;;;7.30;;
20114;SDS011;10218;42.874;25.320;2024-03-22T03:37:01;10.87;;;6.70;;
20114;SDS011;10218;42.874;25.320;2024-03-22T03:39:27;12.57;;;6.77;;
20114;SDS011;10218;42.874;25.320;2024-03-22T03:41:55;13.57;;;6.80;;
20114;SDS011;10218;42.874;25.320;2024-03-22T03:44:21;11.43;;;6.53;;
20114;SDS011;10218;42.874;25.320;2024-03-22T03:46:47;10.57;;;5.77;;
20114;SDS011;10218;42.874;25.320;2024-03-22T03:49:13;10.80;;;6.67;;
20114;SDS011;10218;42.874;25.320;2024-03-22T03:51:39;9.63;;;6.50;;
20114;SDS011;10218;42.874;25.320;2024-03-22T03:54:05;12.13;;;7.17;;
20114;SDS011;10218;42.874;25.320;2024-03-22T03:56:31;11.53;;;6.80;;
20114;SDS011;10218;42.874;25.320;2024-03-22T03:58:57;9.70;;;6.63;;
20114;SDS011;10218;42.874;25.320;2024-03-22T04:01:23;10.27;;;6.83;;
20114;SDS011;10218;42.874;25.320;2024-03-22T04:03:50;10.43;;;6.50;;
20114;SDS011;10218;42.874;25.320;2024-03-22T04:06:16;10.90;;;6.97;;
20114;SDS011;10218;42.874;25.320;2024-03-22T04:08:42;10.37;;;5.70;;
20114;SDS011;10218;42.874;25.320;2024-03-22T04:11:09;10.17;;;6.20;;
20114;SDS011;10218;42.874;25.320;2024-03-22T04:13:35;10.53;;;6.70;;
20114;SDS011;10218;42.874;25.320;2024-03-22T04:16:01;13.03;;;8.20;;
20114;SDS011;10218;42.874;25.320;2024-03-22T04:18:28;9.20;;;5.90;;
20114;SDS011;10218;42.874;25.320;2024-03-22T04:20:54;9.17;;;5.50;;
20114;SDS011;10218;42.874;25.320;2024-03-22T04:23:21;9.63;;;6.37;;
20114;SDS011;10218;42.874;25.320;2024-03-22T04:25:58;33.00;;;18.43;;
20114;SDS011;10218;42.874;25.320;2024-03-22T04:28:25;18.30;;;11.20;;
20114;SDS011;10218;42.874;25.320;2024-03-22T04:30:55;16.60;;;7.17;;
20114;SDS011;10218;42.874;25.320;2024-03-22T04:33:21;14.40;;;8.17;;
20114;SDS011;10218;42.874;25.320;2024-03-22T04:35:47;11.27;;;6.23;;
20114;SDS011;10218;42.874;25.320;2024-03-22T04:38:14;14.87;;;8.17;;
20114;SDS011;10218;42.874;25.320;2024-03-22T04:40:40;16.93;;;8.10;;
20114;SDS011;10218;42.874;25.320;2024-03-22T04:43:06;15.63;;;7.97;;
20114;SDS011;10218;42.874;25.320;2024-03-22T04:45:33;11.93;;;6.37;;
20114;SDS011;10218;42.874;25.320;2024-03-22T04:48:00;7.70;;;5.13;;
20114;SDS011;10218;42.874;25.320;2024-03-22T04:50:27;12.27;;;6.07;;
20114;SDS011;10218;42.874;25.320;2024-03-22T04:52:54;11.23;;;6.17;;
20114;SDS011;10218;42.874;25.320;2024-03-22T04:55:21;12.50;;;7.27;;
20114;SDS011;10218;42.874;25.320;2024-03-22T04:57:47;10.07;;;6.13;;
20114;SDS011;10218;42.874;25.320;2024-03-22T05:00:13;12.10;;;6.77;;
20114;SDS011;10218;42.874;25.320;2024-03-22T05:02:39;12.57;;;7.47;;
20114;SDS011;10218;42.874;25.320;2024-03-22T05:05:05;16.57;;;7.80;;
20114;SDS011;10218;42.874;25.320;2024-03-22T05:07:33;13.73;;;7.60;;
20114;SDS011;10218;42.874;25.320;2024-03-22T05:09:59;21.93;;;12.30;;
20114;SDS011;10218;42.874;25.320;2024-03-22T05:12:25;16.63;;;7.43;;
20114;SDS011;10218;42.874;25.320;2024-03-22T05:14:51;12.43;;;8.37;;
20114;SDS011;10218;42.874;25.320;2024-03-22T05:17:17;13.10;;;7.60;;
20114;SDS011;10218;42.874;25.320;2024-03-22T05:19:43;9.33;;;6.30;;
20114;SDS011;10218;42.874;25.320;2024-03-22T05:22:10;10.50;;;6.77;;
20114;SDS011;10218;42.874;25.320;2024-03-22T05:24:36;8.90;;;5.97;;
20114;SDS011;10218;42.874;25.320;2024-03-22T05:27:02;18.27;;;6.83;;
20114;SDS011;10218;42.874;25.320;2024-03-22T05:29:28;12.33;;;7.97;;
20114;SDS011;10218;42.874;25.320;2024-03-22T05:31:54;14.83;;;8.33;;
20114;SDS011;10218;42.874;25.320;2024-03-22T05:34:20;14.77;;;8.00;;
20114;SDS011;10218;42.874;25.320;2024-03-22T05:36:46;16.50;;;7.97;;
20114;SDS011;10218;42.874;25.320;2024-03-22T05:39:12;14.60;;;8.17;;
20114;SDS011;10218;42.874;25.320;2024-03-22T05:41:38;17.03;;;9.17;;
20114;SDS011;10218;42.874;25.320;2024-03-22T05:44:05;16.87;;;9.87;;
20114;SDS011;10218;42.874;25.320;2024-03-22T05:46:31;18.63;;;11.40;;
20114;SDS011;10218;42.874;25.320;2024-03-22T05:48:57;16.50;;;9.93;;
20114;SDS011;10218;42.874;25.320;2024-03-22T05:51:24;15.87;;;9.30;;
20114;SDS011;10218;42.874;25.320;2024-03-22T05:53:51;16.83;;;10.37;;
20114;SDS011;10218;42.874;25.320;2024-03-22T05:56:17;18.73;;;10.10;;
20114;SDS011;10218;42.874;25.320;2024-03-22T05:58:43;20.47;;;13.43;;
20114;SDS011;10218;42.874;25.320;2024-03-22T06:01:09;17.67;;;10.70;;
20114;SDS011;10218;42.874;25.320;2024-03-22T06:03:36;18.20;;;10.37;;
20114;SDS011;10218;42.874;25.320;2024-03-22T06:06:01;27.40;;;16.43;;
20114;SDS011;10218;42.874;25.320;2024-03-22T06:08:28;22.27;;;13.20;;
20114;SDS011;10218;42.874;25.320;2024-03-22T06:10:57;21.33;;;11.10;;
20114;SDS011;10218;42.874;25.320;2024-03-22T06:13:23;17.17;;;9.27;;
20114;SDS011;10218;42.874;25.320;2024-03-22T06:15:50;13.70;;;8.97;;
20114;SDS011;10218;42.874;25.320;2024-03-22T06:18:16;14.27;;;8.37;;
20114;SDS011;10218;42.874;25.320;2024-03-22T06:20:43;16.93;;;10.03;;
20114;SDS011;10218;42.874;25.320;2024-03-22T06:23:09;12.57;;;8.37;;
20114;SDS011;10218;42.874;25.320;2024-03-22T06:25:36;15.90;;;9.53;;
20114;SDS011;10218;42.874;25.320;2024-03-22T06:28:02;13.90;;;9.30;;
20114;SDS011;10218;42.874;25.320;2024-03-22T06:30:28;20.50;;;9.83;;
20114;SDS011;10218;42.874;25.320;2024-03-22T06:32:54;17.13;;;9.00;;
20114;SDS011;10218;42.874;25.320;2024-03-22T06:35:21;20.87;;;8.90;;
20114;SDS011;10218;42.874;25.320;2024-03-22T06:37:47;13.70;;;8.23;;
20114;SDS011;10218;42.874;25.320;2024-03-22T06:40:18;15.70;;;9.17;;
20114;SDS011;10218;42.874;25.320;2024-03-22T06:42:45;13.40;;;8.47;;
20114;SDS011;10218;42.874;25.320;2024-03-22T06:45:11;11.40;;;7.77;;
20114;SDS011;10218;42.874;25.320;2024-03-22T06:47:37;12.50;;;8.03;;
20114;SDS011;10218;42.874;25.320;2024-03-22T06:50:03;14.40;;;8.43;;
20114;SDS011;10218;42.874;25.320;2024-03-22T06:52:29;12.57;;;8.00;;
20114;SDS011;10218;42.874;25.320;2024-03-22T06:54:55;12.20;;;7.10;;
20114;SDS011;10218;42.874;25.320;2024-03-22T06:57:21;9.50;;;6.20;;
20114;SDS011;10218;42.874;25.320;2024-03-22T06:59:47;9.13;;;6.20;;
20114;SDS011;10218;42.874;25.320;2024-03-22T07:02:13;13.03;;;6.27;;
20114;SDS011;10218;42.874;25.320;2024-03-22T07:04:39;11.17;;;5.83;;
20114;SDS011;10218;42.874;25.320;2024-03-22T07:07:06;7.97;;;5.50;;
20114;SDS011;10218;42.874;25.320;2024-03-22T07:09:32;8.13;;;5.23;;
20114;SDS011;10218;42.874;25.320;2024-03-22T07:11:59;8.60;;;5.53;;
20114;SDS011;10218;42.874;25.320;2024-03-22T07:14:25;9.53;;;5.90;;
20114;SDS011;10218;42.874;25.320;2024-03-22T07:16:51;10.33;;;6.27;;
20114;SDS011;10218;42.874;25.320;2024-03-22T07:19:22;7.53;;;5.40;;
20114;SDS011;10218;42.874;25.320;2024-03-22T07:21:48;8.73;;;4.67;;
20114;SDS011;10218;42.874;25.320;2024-03-22T07:24:14;7.77;;;4.60;;
20114;SDS011;10218;42.874;25.320;2024-03-22T07:26:40;10.03;;;4.90;;
20114;SDS011;10218;42.874;25.320;2024-03-22T07:29:06;7.40;;;4.90;;
20114;SDS011;10218;42.874;25.320;2024-03-22T07:31:33;6.50;;;4.83;;
20114;SDS011;10218;42.874;25.320;2024-03-22T07:33:59;7.37;;;4.97;;
20114;SDS011;10218;42.874;25.320;2024-03-22T07:36:24;7.77;;;4.47;;
20114;SDS011;10218;42.874;25.320;2024-03-22T07:38:52;7.17;;;4.90;;
20114;SDS011;10218;42.874;25.320;2024-03-22T07:41:18;8.30;;;4.80;;
20114;SDS011;10218;42.874;25.320;2024-03-22T07:43:44;6.00;;;4.23;;
20114;SDS011;10218;42.874;25.320;2024-03-22T07:46:10;7.40;;;4.70;;
20114;SDS011;10218;42.874;25.320;2024-03-22T07:48:37;6.63;;;4.43;;
20114;SDS011;10218;42.874;25.320;2024-03-22T07:51:03;6.87;;;4.50;;
20114;SDS011;10218;42.874;25.320;2024-03-22T07:53:29;5.60;;;4.00;;
20114;SDS011;10218;42.874;25.320;2024-03-22T07:55:55;8.37;;;4.00;;
20114;SDS011;10218;42.874;25.320;2024-03-22T07:58:22;5.73;;;4.00;;
20114;SDS011;10218;42.874;25.320;2024-03-22T08:00:48;6.13;;;4.10;;
20114;SDS011;10218;42.874;25.320;2024-03-22T08:03:15;6.07;;;4.30;;
20114;SDS011;10218;42.874;25.320;2024-03-22T08:05:41;6.00;;;4.17;;
20114;SDS011;10218;42.874;25.320;2024-03-22T08:08:08;9.27;;;4.07;;
20114;SDS011;10218;42.874;25.320;2024-03-22T08:10:34;5.63;;;4.00;;
20114;SDS011;10218;42.874;25.320;2024-03-22T08:13:00;7.47;;;4.10;;
20114;SDS011;10218;42.874;25.320;2024-03-22T08:15:26;5.70;;;3.50;;
20114;SDS011;10218;42.874;25.320;2024-03-22T08:17:53;8.93;;;3.87;;
20114;SDS011;10218;42.874;25.320;2024-03-22T08:20:19;4.43;;;3.30;;
20114;SDS011;10218;42.874;25.320;2024-03-22T08:22:45;4.33;;;3.53;;
20114;SDS011;10218;42.874;25.320;2024-03-22T08:25:11;4.17;;;3.00;;
20114;SDS011;10218;42.874;25.320;2024-03-22T08:27:38;6.00;;;2.80;;
20114;SDS011;10218;42.874;25.320;2024-03-22T08:30:04;5.90;;;2.93;;
20114;SDS011;10218;42.874;25.320;2024-03-22T08:32:31;10.23;;;5.40;;
20114;SDS011;10218;42.874;25.320;2024-03-22T08:35:03;4.63;;;2.87;;
20114;SDS011;10218;42.874;25.320;2024-03-22T08:37:33;5.33;;;2.60;;
20114;SDS011;10218;42.874;25.320;2024-03-22T08:39:59;3.30;;;2.73;;
20114;SDS011;10218;42.874;25.320;2024-03-22T08:42:25;2.77;;;2.20;;
20114;SDS011;10218;42.874;25.320;2024-03-22T08:44:51;5.73;;;2.60;;
20114;SDS011;10218;42.874;25.320;2024-03-22T08:47:18;2.63;;;2.20;;
20114;SDS011;10218;42.874;25.320;2024-03-22T08:49:44;3.60;;;2.60;;
20114;SDS011;10218;42.874;25.320;2024-03-22T08:52:11;2.80;;;2.40;;
20114;SDS011;10218;42.874;25.320;2024-03-22T08:54:37;4.97;;;2.97;;
20114;SDS011;10218;42.874;25.320;2024-03-22T08:57:03;4.90;;;2.70;;
20114;SDS011;10218;42.874;25.320;2024-03-22T08:59:30;3.83;;;2.20;;
20114;SDS011;10218;42.874;25.320;2024-03-22T09:01:56;2.90;;;2.03;;
20114;SDS011;10218;42.874;25.320;2024-03-22T09:04:22;2.70;;;2.00;;
20114;SDS011;10218;42.874;25.320;2024-03-22T09:06:48;4.27;;;3.13;;
20114;SDS011;10218;42.874;25.320;2024-03-22T09:09:14;3.03;;;2.30;;
20114;SDS011;10218;42.874;25.320;2024-03-22T09:11:40;10.57;;;5.43;;
20114;SDS011;10218;42.874;25.320;2024-03-22T09:14:06;3.80;;;1.97;;
20114;SDS011;10218;42.874;25.320;2024-03-22T09:16:32;8.33;;;2.53;;
20114;SDS011;10218;42.874;25.320;2024-03-22T09:18:58;6.93;;;2.17;;
20114;SDS011;10218;42.874;25.320;2024-03-22T09:21:25;4.43;;;2.13;;
20114;SDS011;10218;42.874;25.320;2024-03-22T09:23:51;2.90;;;1.70;;
20114;SDS011;10218;42.874;25.320;2024-03-22T09:26:17;2.03;;;1.70;;
20114;SDS011;10218;42.874;25.320;2024-03-22T09:28:45;2.70;;;1.60;;
20114;SDS011;10218;42.874;25.320;2024-03-22T09:31:11;2.60;;;2.00;;
20114;SDS011;10218;42.874;25.320;2024-03-22T09:33:37;3.20;;;2.03;;
20114;SDS011;10218;42.874;25.320;2024-03-22T09:36:04;1.83;;;1.37;;
20114;SDS011;10218;42.874;25.320;2024-03-22T09:38:30;2.57;;;1.50;;
20114;SDS011;10218;42.874;25.320;2024-03-22T09:40:56;3.83;;;2.20;;
20114;SDS011;10218;42.874;25.320;2024-03-22T09:43:22;3.57;;;2.03;;
20114;SDS011;10218;42.874;25.320;2024-03-22T09:45:50;2.53;;;1.67;;
20114;SDS011;10218;42.874;25.320;2024-03-22T09:48:19;1.70;;;1.20;;
20114;SDS011;10218;42.874;25.320;2024-03-22T09:50:46;2.20;;;1.57;;
20114;SDS011;10218;42.874;25.320;2024-03-22T09:53:13;4.00;;;1.50;;
20114;SDS011;10218;42.874;25.320;2024-03-22T09:55:43;4.67;;;2.70;;
20114;SDS011;10218;42.874;25.320;2024-03-22T09:58:13;1.73;;;1.30;;
20114;SDS011;10218;42.874;25.320;2024-03-22T10:00:40;2.83;;;1.60;;
20114;SDS011;10218;42.874;25.320;2024-03-22T10:03:06;5.33;;;1.50;;
20114;SDS011;10218;42.874;25.320;2024-03-22T10:05:34;1.93;;;1.37;;
20114;SDS011;10218;42.874;25.320;2024-03-22T10:08:00;3.13;;;1.57;;
20114;SDS011;10218;42.874;25.320;2024-03-22T10:10:29;2.17;;;1.53;;
20114;SDS011;10218;42.874;25.320;2024-03-22T10:12:56;2.33;;;1.70;;
20114;SDS011;10218;42.874;25.320;2024-03-22T10:15:23;1.80;;;1.50;;
20114;SDS011;10218;42.874;25.320;2024-03-22T10:17:49;2.53;;;1.70;;
20114;SDS011;10218;42.874;25.320;2024-03-22T10:20:15;5.70;;;2.10;;
20114;SDS011;10218;42.874;25.320;2024-03-22T10:23:02;2.00;;;1.80;;
20114;SDS011;10218;42.874;25.320;2024-03-22T10:25:28;1.77;;;1.67;;
20114;SDS011;10218;42.874;25.320;2024-03-22T10:27:55;2.53;;;2.00;;
20114;SDS011;10218;42.874;25.320;2024-03-22T10:30:22;3.07;;;1.90;;
20114;SDS011;10218;42.874;25.320;2024-03-22T10:32:50;2.07;;;1.60;;
20114;SDS011;10218;42.874;25.320;2024-03-22T10:35:17;3.30;;;2.20;;
20114;SDS011;10218;42.874;25.320;2024-03-22T10:37:44;6.50;;;2.43;;
20114;SDS011;10218;42.874;25.320;2024-03-22T10:40:10;1.93;;;1.50;;
20114;SDS011;10218;42.874;25.320;2024-03-22T10:42:40;2.63;;;1.90;;
20114;SDS011;10218;42.874;25.320;2024-03-22T10:45:10;2.30;;;1.93;;
20114;SDS011;10218;42.874;25.320;2024-03-22T10:47:39;3.63;;;2.17;;
20114;SDS011;10218;42.874;25.320;2024-03-22T10:50:09;2.87;;;2.20;;
20114;SDS011;10218;42.874;25.320;2024-03-22T10:55:24;3.77;;;1.97;;
20114;SDS011;10218;42.874;25.320;2024-03-22T10:57:56;2.37;;;1.80;;
20114;SDS011;10218;42.874;25.320;2024-03-22T11:00:27;2.07;;;1.77;;
20114;SDS011;10218;42.874;25.320;2024-03-22T11:02:55;2.43;;;1.70;;
20114;SDS011;10218;42.874;25.320;2024-03-22T11:05:22;1.70;;;1.60;;
20114;SDS011;10218;42.874;25.320;2024-03-22T11:08:01;2.40;;;1.80;;
20114;SDS011;10218;42.874;25.320;2024-03-22T11:10:30;2.30;;;2.10;;
20114;SDS011;10218;42.874;25.320;2024-03-22T11:13:03;3.07;;;2.20;;
20114;SDS011;10218;42.874;25.320;2024-03-22T11:15:33;7.40;;;4.17;;
20114;SDS011;10218;42.874;25.320;2024-03-22T11:17:59;4.20;;;2.47;;
20114;SDS011;10218;42.874;25.320;2024-03-22T11:20:26;2.73;;;1.90;;
20114;SDS011;10218;42.874;25.320;2024-03-22T11:22:53;2.30;;;2.10;;
20114;SDS011;10218;42.874;25.320;2024-03-22T11:25:20;2.50;;;2.20;;
20114;SDS011;10218;42.874;25.320;2024-03-22T11:27:46;10.97;;;6.10;;
20114;SDS011;10218;42.874;25.320;2024-03-22T11:30:12;2.70;;;2.50;;
20114;SDS011;10218;42.874;25.320;2024-03-22T11:32:40;5.73;;;3.30;;
20114;SDS011;10218;42.874;25.320;2024-03-22T11:35:11;3.70;;;2.50;;
20114;SDS011;10218;42.874;25.320;2024-03-22T11:37:41;3.40;;;2.30;;
20114;SDS011;10218;42.874;25.320;2024-03-22T11:40:11;3.80;;;2.43;;
20114;SDS011;10218;42.874;25.320;2024-03-22T11:42:38;3.37;;;2.50;;
20114;SDS011;10218;42.874;25.320;2024-03-22T11:45:07;3.63;;;2.90;;
20114;SDS011;10218;42.874;25.320;2024-03-22T11:47:36;5.83;;;3.17;;
20114;SDS011;10218;42.874;25.320;2024-03-22T11:50:03;3.53;;;3.20;;
20114;SDS011;10218;42.874;25.320;2024-03-22T11:52:29;5.03;;;3.53;;
20114;SDS011;10218;42.874;25.320;2024-03-22T11:54:55;3.27;;;2.43;;
20114;SDS011;10218;42.874;25.320;2024-03-22T11:57:23;3.57;;;2.80;;
20114;SDS011;10218;42.874;25.320;2024-03-22T11:59:50;6.77;;;4.90;;
20114;SDS011;10218;42.874;25.320;2024-03-22T12:02:17;3.73;;;3.30;;
20114;SDS011;10218;42.874;25.320;2024-03-22T12:04:45;3.67;;;2.70;;
20114;SDS011;10218;42.874;25.320;2024-03-22T12:07:16;4.23;;;3.43;;
20114;SDS011;10218;42.874;25.320;2024-03-22T12:09:44;3.57;;;2.80;;
20114;SDS011;10218;42.874;25.320;2024-03-22T12:12:11;4.17;;;3.10;;
20114;SDS011;10218;42.874;25.320;2024-03-22T12:14:38;5.50;;;3.67;;
20114;SDS011;10218;42.874;25.320;2024-03-22T12:17:05;4.13;;;2.97;;
20114;SDS011;10218;42.874;25.320;2024-03-22T12:19:32;5.07;;;3.10;;
20114;SDS011;10218;42.874;25.320;2024-03-22T12:21:58;3.20;;;2.87;;
20114;SDS011;10218;42.874;25.320;2024-03-22T12:24:25;3.60;;;2.70;;
20114;SDS011;10218;42.874;25.320;2024-03-22T12:26:53;4.63;;;2.70;;
20114;SDS011;10218;42.874;25.320;2024-03-22T12:29:19;3.00;;;2.50;;
20114;SDS011;10218;42.874;25.320;2024-03-22T12:31:47;5.00;;;2.17;;
20114;SDS011;10218;42.874;25.320;2024-03-22T12:34:13;4.00;;;3.60;;
20114;SDS011;10218;42.874;25.320;2024-03-22T12:36:39;5.53;;;3.73;;
20114;SDS011;10218;42.874;25.320;2024-03-22T12:39:06;17.27;;;9.83;;
20114;SDS011;10218;42.874;25.320;2024-03-22T12:41:32;26.40;;;10.90;;
20114;SDS011;10218;42.874;25.320;2024-03-22T12:43:59;6.33;;;4.27;;
20114;SDS011;10218;42.874;25.320;2024-03-22T12:46:26;11.57;;;6.73;;
20114;SDS011;10218;42.874;25.320;2024-03-22T12:48:53;16.33;;;8.27;;
20114;SDS011;10218;42.874;25.320;2024-03-22T12:51:19;5.87;;;3.07;;
20114;SDS011;10218;42.874;25.320;2024-03-22T12:53:46;2.63;;;2.40;;
20114;SDS011;10218;42.874;25.320;2024-03-22T12:56:12;3.60;;;2.67;;
20114;SDS011;10218;42.874;25.320;2024-03-22T12:58:38;4.00;;;2.90;;
20114;SDS011;10218;42.874;25.320;2024-03-22T13:01:05;3.73;;;2.80;;
20114;SDS011;10218;42.874;25.320;2024-03-22T13:03:32;8.97;;;2.90;;
20114;SDS011;10218;42.874;25.320;2024-03-22T13:05:58;3.27;;;2.60;;
20114;SDS011;10218;42.874;25.320;2024-03-22T13:08:24;3.47;;;2.60;;
20114;SDS011;10218;42.874;25.320;2024-03-22T13:10:50;6.60;;;4.67;;
20114;SDS011;10218;42.874;25.320;2024-03-22T13:13:18;5.00;;;2.83;;
20114;SDS011;10218;42.874;25.320;2024-03-22T13:15:44;3.73;;;2.57;;
20114;SDS011;10218;42.874;25.320;2024-03-22T13:18:12;4.73;;;2.70;;
20114;SDS011;10218;42.874;25.320;2024-03-22T13:20:38;4.40;;;2.53;;
20114;SDS011;10218;42.874;25.320;2024-03-22T13:23:05;4.50;;;2.80;;
20114;SDS011;10218;42.874;25.320;2024-03-22T13:25:31;3.67;;;2.97;;
20114;SDS011;10218;42.874;25.320;2024-03-22T13:27:57;3.30;;;2.40;;
20114;SDS011;10218;42.874;25.320;2024-03-22T13:30:24;2.80;;;2.37;;
20114;SDS011;10218;42.874;25.320;2024-03-22T13:32:50;4.87;;;2.77;;
20114;SDS011;10218;42.874;25.320;2024-03-22T13:35:16;3.07;;;2.40;;
20114;SDS011;10218;42.874;25.320;2024-03-22T13:37:42;3.57;;;3.17;;
20114;SDS011;10218;42.874;25.320;2024-03-22T13:40:08;5.80;;;3.60;;
20114;SDS011;10218;42.874;25.320;2024-03-22T13:42:34;3.17;;;2.50;;
20114;SDS011;10218;42.874;25.320;2024-03-22T13:45:01;2.73;;;2.20;;
20114;SDS011;10218;42.874;25.320;2024-03-22T13:47:27;2.70;;;2.40;;
20114;SDS011;10218;42.874;25.320;2024-03-22T13:49:53;3.10;;;2.50;;
20114;SDS011;10218;42.874;25.320;2024-03-22T13:52:20;4.90;;;2.70;;
20114;SDS011;10218;42.874;25.320;2024-03-22T13:54:48;4.17;;;2.80;;
20114;SDS011;10218;42.874;25.320;2024-03-22T13:57:18;3.47;;;2.70;;
20114;SDS011;10218;42.874;25.320;2024-03-22T13:59:44;5.07;;;2.60;;
20114;SDS011;10218;42.874;25.320;2024-03-22T14:02:11;3.50;;;2.80;;
20114;SDS011;10218;42.874;25.320;2024-03-22T14:04:37;4.87;;;2.67;;
20114;SDS011;10218;42.874;25.320;2024-03-22T14:07:03;3.27;;;2.67;;
20114;SDS011;10218;42.874;25.320;2024-03-22T14:09:36;2.77;;;2.57;;
20114;SDS011;10218;42.874;25.320;2024-03-22T14:12:02;4.43;;;2.70;;
20114;SDS011;10218;42.874;25.320;2024-03-22T14:14:28;5.60;;;2.70;;
20114;SDS011;10218;42.874;25.320;2024-03-22T14:16:55;2.90;;;2.50;;
20114;SDS011;10218;42.874;25.320;2024-03-22T14:19:21;6.23;;;3.07;;
20114;SDS011;10218;42.874;25.320;2024-03-22T14:21:47;2.97;;;2.37;;
20114;SDS011;10218;42.874;25.320;2024-03-22T14:24:13;3.10;;;2.57;;
20114;SDS011;10218;42.874;25.320;2024-03-22T14:26:40;4.07;;;2.60;;
20114;SDS011;10218;42.874;25.320;2024-03-22T14:29:09;3.07;;;2.57;;